Time;durP1;ratioP1;P1;durP2;ratioP2;P2;SDS_P1;SDS_P2;PMS_P1;PMS_P2;Temp;Humidity;BMP_temperature;BMP_pressure;BME280_temperature;BME280_humidity;BME280_pressure;Samples;Min_cycle;Max_cycle;Signal;HPM_P1;HPM_P2
2023/09/27 00:02:07;;;;;;;4.22;1.85;;;;;;;20.25;65.88;100581.72;10255368;28;97449;-78
2023/09/27 00:07:11;;;;;;;5.53;1.98;;;;;;;20.27;66.04;100576.28;10255454;28;97239;-77
2023/09/27 00:12:15;;;;;;;4.05;1.95;;;;;;;20.26;66.01;100567.41;10255574;28;97208;-78
2023/09/27 00:17:20;;;;;;;5.03;2.20;;;;;;;20.25;65.90;100571.03;10255214;28;97164;-78
2023/09/27 00:22:24;;;;;;;6.60;2.25;;;;;;;20.51;65.13;100565.59;10284770;28;97098;-78
2023/09/27 00:27:27;;;;;;;4.22;2.00;;;;;;;20.65;64.50;100555.56;10295244;28;97059;-78
2023/09/27 00:32:32;;;;;;;4.93;2.38;;;;;;;20.68;64.56;100551.78;10295656;28;97058;-77
2023/09/27 00:37:36;;;;;;;4.32;2.22;;;;;;;20.68;64.50;100551.78;10280972;28;97567;-77
2023/09/27 00:42:39;;;;;;;5.72;2.35;;;;;;;20.56;65.03;100566.09;10253763;28;96998;-77
2023/09/27 00:47:44;;;;;;;4.20;2.13;;;;;;;20.54;65.25;100557.34;10254675;28;96700;-77
2023/09/27 00:52:48;;;;;;;5.22;2.13;;;;;;;20.38;65.60;100545.13;10253896;28;96789;-77
2023/09/27 00:57:54;;;;;;;4.32;2.10;;;;;;;20.22;65.96;100552.56;10253511;28;98055;-77
2023/09/27 01:02:59;;;;;;;3.45;2.20;;;;;;;19.87;66.95;100545.44;10243747;28;97388;-77
2023/09/27 01:08:04;;;;;;;5.03;2.20;;;;;;;19.89;66.99;100547.03;10213551;28;96808;-77
2023/09/27 01:13:08;;;;;;;5.63;2.60;;;;;;;19.96;66.77;100553.63;10242521;28;96608;-77
2023/09/27 01:18:15;;;;;;;4.57;2.05;;;;;;;19.79;67.58;100548.66;10254091;28;97410;-77
2023/09/27 01:23:22;;;;;;;4.07;2.20;;;;;;;19.89;66.88;100541.69;10253602;28;96671;-77
2023/09/27 01:28:27;;;;;;;4.03;2.17;;;;;;;19.93;67.24;100532.47;10254535;28;97310;-77
2023/09/27 01:33:33;;;;;;;5.50;2.00;;;;;;;20.21;66.39;100531.28;10253563;28;96810;-77
2023/09/27 01:38:39;;;;;;;6.72;2.30;;;;;;;20.24;66.17;100521.22;10253057;28;96706;-77
2023/09/27 01:43:43;;;;;;;6.30;2.25;;;;;;;19.66;68.28;100523.84;10252637;28;96760;-78
2023/09/27 01:48:48;;;;;;;5.28;2.20;;;;;;;19.67;68.03;100520.19;10212801;28;96637;-78
2023/09/27 01:53:53;;;;;;;4.97;2.20;;;;;;;19.94;67.57;100506.63;10216775;28;96758;-78
2023/09/27 01:58:56;;;;;;;;;;;;;;;20.03;68.39;100512.13;10219327;28;96692;-78
2023/09/27 02:03:59;;;;;;;5.22;2.58;;;;;;;20.10;66.67;100507.19;10247078;28;96663;-77
2023/09/27 02:09:04;;;;;;;3.70;2.08;;;;;;;19.81;67.35;100506.69;10259619;28;96651;-78
2023/09/27 02:14:08;;;;;;;5.57;2.40;;;;;;;19.62;68.00;100513.47;10259239;28;96799;-78
2023/09/27 02:19:12;;;;;;;3.97;2.15;;;;;;;19.58;68.07;100510.16;10266057;28;96926;-77
2023/09/27 02:24:17;;;;;;;4.05;2.20;;;;;;;19.50;68.23;100511.69;10259163;28;97359;-78
2023/09/27 02:29:20;;;;;;;4.43;2.22;;;;;;;19.22;69.00;100512.78;10258922;28;96913;-78
2023/09/27 02:34:24;;;;;;;3.88;2.50;;;;;;;19.38;68.46;100524.06;10257730;28;96750;-78
2023/09/27 02:39:29;;;;;;;5.50;2.83;;;;;;;19.37;68.49;100522.38;10258991;28;96748;-78
2023/09/27 02:44:32;;;;;;;4.78;2.40;;;;;;;19.33;68.68;100517.34;10259026;28;97587;-78
2023/09/27 02:49:36;;;;;;;4.30;2.20;;;;;;;19.29;69.00;100520.25;10257944;28;97355;-78
2023/09/27 02:54:40;;;;;;;4.55;2.50;;;;;;;19.18;69.26;100512.13;10258409;28;96661;-78
2023/09/27 02:59:43;;;;;;;6.88;2.88;;;;;;;19.38;68.61;100502.72;10257213;28;96670;-77
2023/09/27 03:04:48;;;;;;;4.20;2.58;;;;;;;19.43;68.50;100495.25;10223932;28;96805;-77
2023/09/27 03:09:53;;;;;;;4.10;2.17;;;;;;;19.55;68.22;100506.88;10238415;28;97249;-77
2023/09/27 03:14:56;;;;;;;4.38;2.13;;;;;;;19.58;68.05;100504.81;10257772;28;98364;-77
2023/09/27 03:19:59;;;;;;;3.60;1.90;;;;;;;19.22;68.80;100502.97;10257400;28;96772;-77
2023/09/27 03:25:05;;;;;;;3.15;2.15;;;;;;;19.08;69.17;100496.88;10256199;28;96670;-78
2023/09/27 03:30:09;;;;;;;6.55;2.25;;;;;;;19.05;69.05;100492.63;10257207;28;96768;-77
2023/09/27 03:35:12;;;;;;;4.03;2.17;;;;;;;18.89;69.47;100492.00;10257038;28;97002;-77
2023/09/27 03:40:17;;;;;;;5.05;2.17;;;;;;;18.82;69.84;100504.03;10256486;28;96744;-77
2023/09/27 03:45:20;;;;;;;4.47;2.60;;;;;;;18.90;69.52;100503.53;10257219;28;96614;-78
2023/09/27 03:50:23;;;;;;;4.57;1.95;;;;;;;18.97;69.55;100505.63;10256130;28;96753;-78
2023/09/27 03:55:31;;;;;;;5.70;2.15;;;;;;;18.75;70.23;100502.75;10256284;28;96683;-78
2023/09/27 04:00:34;;;;;;;4.35;2.30;;;;;;;18.67;70.73;100491.78;10256455;28;96826;-78
2023/09/27 04:05:37;;;;;;;4.25;2.10;;;;;;;18.84;70.37;100503.94;10255766;28;97193;-78
2023/09/27 04:10:42;;;;;;;6.00;2.30;;;;;;;18.90;69.90;100508.84;10256030;28;97314;-78
2023/09/27 04:15:48;;;;;;;;;;;;;;;18.96;70.71;100508.41;10254384;28;96662;-78
2023/09/27 04:20:51;;;;;;;4.72;2.40;;;;;;;18.90;69.78;100509.72;10255730;28;98073;-77
2023/09/27 04:25:56;;;;;;;5.93;2.17;;;;;;;18.58;70.65;100505.75;10255112;28;97117;-78
2023/09/27 04:31:05;;;;;;;;;;;;;;;18.76;70.91;100514.28;10275504;22;97368;-78
2023/09/27 04:36:11;;;;;;;6.40;2.20;;;;;;;18.66;70.48;100513.22;10307353;28;96679;-78
2023/09/27 04:41:17;;;;;;;7.18;2.65;;;;;;;18.85;69.87;100514.50;10255135;28;96682;-78
2023/09/27 04:46:20;;;;;;;4.40;2.55;;;;;;;18.71;70.23;100521.75;10254306;28;96812;-78
2023/09/27 04:51:23;;;;;;;4.50;2.30;;;;;;;18.74;70.14;100535.72;10285347;28;96842;-78
2023/09/27 04:56:29;;;;;;;6.28;2.53;;;;;;;18.81;70.22;100530.81;10335779;28;96615;-78
2023/09/27 05:01:32;;;;;;;6.55;3.08;;;;;;;18.77;70.38;100531.97;10335849;28;97133;-78
2023/09/27 05:06:36;;;;;;;6.38;3.13;;;;;;;18.34;71.89;100530.50;10334968;28;97356;-78
2023/09/27 05:11:41;;;;;;;4.85;2.65;;;;;;;18.46;72.05;100527.00;10334741;28;96774;-78
2023/09/27 05:16:44;;;;;;;5.32;2.33;;;;;;;18.77;71.20;100530.19;10335707;28;96661;-77
2023/09/27 05:21:48;;;;;;;4.60;2.22;;;;;;;18.88;70.71;100532.09;10286131;28;96762;-78
2023/09/27 05:26:52;;;;;;;4.13;2.35;;;;;;;18.95;70.76;100531.59;10259873;28;97093;-78
2023/09/27 05:31:55;;;;;;;;;;;;;;;18.96;71.56;100538.63;10260805;28;97342;-78
2023/09/27 05:36:58;;;;;;;4.32;2.58;;;;;;;18.96;70.54;100537.75;10260812;28;96744;-78
2023/09/27 05:42:05;;;;;;;6.18;2.70;;;;;;;18.99;70.55;100530.41;10265098;28;97295;-78
2023/09/27 05:47:08;;;;;;;7.32;2.58;;;;;;;18.97;70.93;100536.81;10300807;28;96657;-78
2023/09/27 05:52:13;;;;;;;6.28;3.13;;;;;;;18.98;71.00;100544.69;10300823;28;97991;-78
2023/09/27 05:57:18;;;;;;;5.78;3.17;;;;;;;18.88;71.30;100550.78;10299517;28;97380;-78
2023/09/27 06:02:30;;;;;;;5.13;2.22;;;;;;;18.75;71.93;100557.94;10300817;28;96622;-78
2023/09/27 06:07:34;;;;;;;4.95;2.38;;;;;;;18.68;71.75;100559.28;10299959;28;96724;-78
2023/09/27 06:12:38;;;;;;;4.57;2.80;;;;;;;18.42;72.39;100568.16;10300409;28;97254;-78
2023/09/27 06:17:43;;;;;;;4.93;2.88;;;;;;;18.55;72.00;100564.59;10300668;28;97282;-78
2023/09/27 06:22:48;;;;;;;5.18;2.97;;;;;;;18.62;71.37;100584.56;10299463;28;97504;-78
2023/09/27 06:27:53;;;;;;;5.45;2.90;;;;;;;18.58;71.58;100590.16;10274667;28;96784;-78
2023/09/27 06:32:57;;;;;;;;;;;;;;;18.43;72.86;100596.50;10263051;28;96802;-78
2023/09/27 06:38:02;;;;;;;6.05;2.97;;;;;;;18.57;72.08;100613.34;10298549;28;97255;-78
2023/09/27 06:43:08;;;;;;;5.63;3.08;;;;;;;18.45;72.42;100623.91;10298831;28;96852;-78
2023/09/27 06:48:12;;;;;;;5.28;3.00;;;;;;;18.44;72.47;100616.84;10297910;28;97307;-78
2023/09/27 06:53:18;;;;;;;5.75;3.03;;;;;;;18.52;72.18;100625.25;10299796;28;96722;-78
2023/09/27 06:58:31;;;;;;;5.18;3.25;;;;;;;18.51;72.05;100616.38;10298500;28;96827;-78
2023/09/27 07:03:36;;;;;;;4.85;3.38;;;;;;;18.49;72.52;100623.63;10298119;28;97285;-78
2023/09/27 07:08:43;;;;;;;4.45;2.72;;;;;;;18.36;72.91;100624.50;10298505;28;96817;-78
2023/09/27 07:13:49;;;;;;;4.78;3.08;;;;;;;18.61;72.49;100637.97;10298487;28;96716;-78
2023/09/27 07:18:54;;;;;;;6.32;3.10;;;;;;;18.60;72.74;100654.91;10297771;28;97168;-78
2023/09/27 07:23:59;;;;;;;5.50;3.22;;;;;;;18.56;72.68;100670.25;10301006;28;96874;-78
2023/09/27 07:29:07;;;;;;;5.32;3.17;;;;;;;18.76;72.35;100675.13;10338220;28;97015;-78
2023/09/27 07:34:11;;;;;;;6.03;3.15;;;;;;;18.74;72.57;100676.16;10338467;28;96743;-78
2023/09/27 07:39:15;;;;;;;6.45;3.38;;;;;;;18.66;72.41;100667.84;10337356;28;96728;-78
2023/09/27 07:44:21;;;;;;;6.18;3.30;;;;;;;18.80;72.39;100667.78;10337509;28;96692;-78
2023/09/27 07:49:24;;;;;;;6.18;3.10;;;;;;;18.80;72.39;100663.28;10338217;28;96896;-78
2023/09/27 07:54:28;;;;;;;5.83;3.50;;;;;;;18.77;72.83;100657.28;10338244;28;97344;-78
2023/09/27 07:59:33;;;;;;;5.82;3.55;;;;;;;18.78;72.63;100669.69;10336658;28;96964;-78
2023/09/27 08:04:39;;;;;;;6.22;3.25;;;;;;;18.82;72.88;100671.19;10337769;28;97003;-78
2023/09/27 08:09:43;;;;;;;5.15;2.90;;;;;;;18.83;72.98;100665.78;10337516;28;97062;-77
2023/09/27 08:14:47;;;;;;;7.32;3.65;;;;;;;19.08;72.20;100671.13;10337314;28;96694;-78
2023/09/27 08:19:50;;;;;;;;;;;;;;;19.08;72.28;100689.81;10329380;28;97047;-78
2023/09/27 08:24:54;;;;;;;5.65;3.15;;;;;;;19.18;71.75;100698.06;10295998;28;96736;-78
2023/09/27 08:30:00;;;;;;;6.03;3.50;;;;;;;19.19;72.04;100711.31;10294729;28;97432;-78
2023/09/27 08:35:05;;;;;;;5.93;3.20;;;;;;;19.29;72.08;100711.50;10323289;28;97292;-78
2023/09/27 08:40:12;;;;;;;;;;;;;;;20.11;71.47;100718.19;10336980;28;96735;-78
2023/09/27 08:45:22;;;;;;;6.30;3.15;;;;;;;22.83;64.71;100710.41;10336688;28;96703;-78
2023/09/27 08:50:27;;;;;;;6.00;3.90;;;;;;;24.79;61.27;100716.31;10335267;28;97229;-78
2023/09/27 08:55:31;;;;;;;5.93;3.03;;;;;;;27.05;57.69;100706.16;10336106;28;96942;-78
2023/09/27 09:00:36;;;;;;;4.35;2.58;;;;;;;28.27;55.40;100715.88;10335275;28;96566;-78
2023/09/27 09:05:41;;;;;;;4.70;2.60;;;;;;;28.31;53.93;100709.13;10336272;28;96823;-78
2023/09/27 09:10:45;;;;;;;3.20;2.58;;;;;;;29.22;51.20;100710.06;10335450;28;96764;-78
2023/09/27 09:15:52;;;;;;;4.38;2.50;;;;;;;30.67;48.18;100719.63;10335679;28;98048;-78
2023/09/27 09:20:59;;;;;;;3.75;2.15;;;;;;;31.49;44.92;100718.91;10334283;28;96790;-79
2023/09/27 09:26:05;;;;;;;4.68;2.38;;;;;;;32.17;43.58;100721.47;10321708;28;97202;-79
2023/09/27 09:31:22;;;;;;;3.78;2.38;;;;;;;32.57;36.96;100718.25;10334108;28;96834;-79
2023/09/27 09:36:28;;;;;;;3.65;2.10;;;;;;;33.25;38.69;100709.59;10335153;28;96698;-79
2023/09/27 09:41:45;;;;;;;3.65;1.60;;;;;;;34.17;34.13;100700.25;10334059;28;97078;-79
2023/09/27 09:46:51;;;;;;;3.33;1.92;;;;;;;34.25;36.55;100691.88;10334682;28;96830;-79
2023/09/27 09:51:57;;;;;;;3.30;1.90;;;;;;;35.14;34.90;100694.38;10334704;28;96543;-79
2023/09/27 09:57:06;;;;;;;2.75;1.83;;;;;;;35.57;34.36;100695.69;10334864;28;97240;-79
2023/09/27 10:02:28;;;;;;;3.17;1.90;;;;;;;34.18;32.69;100700.06;10334246;28;96927;-79
2023/09/27 10:07:33;;;;;;;3.22;2.08;;;;;;;34.97;33.53;100701.28;10334487;28;96770;-79
2023/09/27 10:12:38;;;;;;;3.30;2.00;;;;;;;34.72;32.94;100694.66;10333942;28;96855;-79
2023/09/27 10:17:45;;;;;;;3.67;2.20;;;;;;;34.71;32.54;100692.97;10339933;28;96604;-78
2023/09/27 10:22:53;;;;;;;4.85;2.50;;;;;;;35.22;32.59;100696.88;10324939;28;96777;-79
2023/09/27 10:28:09;;;;;;;5.47;3.40;;;;;;;34.47;31.50;100701.72;10298863;28;97443;-79
2023/09/27 10:33:33;;;;;;;4.55;3.10;;;;;;;35.24;31.57;100700.25;10300116;28;96713;-79
2023/09/27 10:39:01;;;;;;;5.25;3.22;;;;;;;35.71;30.52;100691.03;10298721;28;96911;-78
2023/09/27 10:44:05;;;;;;;4.53;2.85;;;;;;;35.80;31.44;100692.50;10298846;28;96764;-79
2023/09/27 10:49:10;;;;;;;5.15;2.70;;;;;;;36.86;29.86;100696.59;10300208;28;96729;-79
2023/09/27 10:54:16;;;;;;;6.40;3.10;;;;;;;37.38;29.44;100693.56;10298922;28;97116;-79
2023/09/27 10:59:26;;;;;;;4.32;2.83;;;;;;;37.23;29.27;100682.84;10297990;28;96988;-79
2023/09/27 11:04:37;;;;;;;4.68;3.00;;;;;;;36.06;29.77;100678.78;10297444;28;96785;-79
2023/09/27 11:09:44;;;;;;;4.18;2.45;;;;;;;36.53;29.18;100691.28;10338353;28;97082;-79
2023/09/27 11:14:47;;;;;;;3.47;2.20;;;;;;;37.50;28.00;100683.53;10339096;28;97427;-79
2023/09/27 11:19:54;;;;;;;3.33;2.33;;;;;;;37.73;27.28;100683.69;10330262;28;97282;-79
2023/09/27 11:24:58;;;;;;;4.28;2.15;;;;;;;36.99;26.50;100671.84;10289232;28;96992;-80
2023/09/27 11:30:01;;;;;;;2.90;1.73;;;;;;;36.51;26.86;100668.72;10297012;28;97019;-80
2023/09/27 11:35:06;;;;;;;2.47;1.60;;;;;;;37.04;25.92;100678.34;10297453;28;96959;-80
2023/09/27 11:40:11;;;;;;;2.38;1.75;;;;;;;37.74;25.51;100679.91;10298431;28;96769;-79
2023/09/27 11:45:14;;;;;;;1.90;1.10;;;;;;;37.66;24.76;100681.03;10297274;28;97256;-79
2023/09/27 11:50:20;;;;;;;1.20;1.00;;;;;;;36.55;24.17;100664.50;10296492;28;96790;-80
2023/09/27 11:55:24;;;;;;;1.50;1.00;;;;;;;37.50;23.59;100670.59;10295680;28;96655;-80
2023/09/27 12:00:28;;;;;;;1.40;0.98;;;;;;;37.12;24.30;100664.38;10297295;28;97122;-80
2023/09/27 12:05:36;;;;;;;1.92;1.20;;;;;;;36.18;24.51;100654.28;10296827;28;97054;-80
2023/09/27 12:10:41;;;;;;;1.50;0.90;;;;;;;37.20;23.45;100666.84;10296428;28;96710;-80
2023/09/27 12:15:46;;;;;;;1.90;1.00;;;;;;;37.75;23.46;100656.84;10296931;28;97202;-80
2023/09/27 12:20:57;;;;;;;1.15;0.75;;;;;;;36.02;24.21;100652.00;10295771;28;96860;-80
2023/09/27 12:26:02;;;;;;;1.97;1.00;;;;;;;34.33;27.04;100646.13;10296406;28;96916;-79
2023/09/27 12:31:11;;;;;;;1.20;0.95;;;;;;;35.42;25.81;100643.03;10307287;28;97190;-79
2023/09/27 12:36:18;;;;;;;1.95;1.20;;;;;;;35.15;25.90;100624.88;10335680;28;96681;-80
2023/09/27 12:41:24;;;;;;;1.83;1.20;;;;;;;34.00;26.62;100619.69;10336204;28;96799;-79
2023/09/27 12:46:28;;;;;;;2.13;0.98;;;;;;;35.57;25.99;100631.84;10335368;28;97090;-80
2023/09/27 12:51:33;;;;;;;1.30;1.00;;;;;;;35.41;25.71;100615.81;10335420;28;96686;-80
2023/09/27 12:56:50;;;;;;;1.55;0.80;;;;;;;35.73;25.28;100612.22;10335974;28;96865;-80
2023/09/27 13:01:55;;;;;;;1.50;1.02;;;;;;;34.89;26.29;100615.81;10335749;28;96747;-80
2023/09/27 13:07:01;;;;;;;0.80;0.60;;;;;;;35.29;25.95;100623.84;10335088;28;97503;-80
2023/09/27 13:12:05;;;;;;;2.00;1.00;;;;;;;35.38;26.18;100624.47;10335732;28;97104;-80
2023/09/27 13:17:08;;;;;;;1.02;0.77;;;;;;;35.55;25.99;100617.53;10335067;28;97408;-80
2023/09/27 13:22:12;;;;;;;2.35;1.10;;;;;;;35.37;26.64;100615.41;10317814;28;96893;-80
2023/09/27 13:27:16;;;;;;;1.70;1.00;;;;;;;35.35;27.17;100620.28;10293875;28;97559;-80
2023/09/27 13:32:19;;;;;;;0.98;0.73;;;;;;;35.70;26.68;100625.50;10294050;28;97534;-80
2023/09/27 13:37:24;;;;;;;2.13;1.00;;;;;;;35.05;27.73;100623.63;10293225;28;96722;-80
2023/09/27 13:42:27;;;;;;;2.00;0.80;;;;;;;35.48;27.11;100606.59;10333124;28;96718;-80
2023/09/27 13:47:30;;;;;;;1.88;0.90;;;;;;;35.83;26.69;100619.97;10336830;28;96686;-80
2023/09/27 13:52:35;;;;;;;2.25;0.95;;;;;;;34.75;28.45;100617.66;10342122;28;97233;-80
2023/09/27 13:57:39;;;;;;;3.13;1.20;;;;;;;34.19;29.26;100605.28;10341191;28;97093;-81
2023/09/27 14:02:42;;;;;;;2.50;0.85;;;;;;;33.76;30.03;100590.97;10341121;28;96724;-81
2023/09/27 14:07:47;;;;;;;1.63;0.80;;;;;;;34.94;28.57;100588.69;10341482;28;96751;-80
2023/09/27 14:12:51;;;;;;;2.08;0.75;;;;;;;34.48;29.47;100592.16;10341233;28;96838;-81
2023/09/27 14:17:55;;;;;;;2.38;0.77;;;;;;;34.16;29.57;100590.13;10341019;28;96646;-81
2023/09/27 14:23:00;;;;;;;1.27;0.82;;;;;;;33.26;30.78;100592.06;10308484;28;96775;-80
2023/09/27 14:28:03;;;;;;;1.48;0.85;;;;;;;32.87;31.20;100579.97;10298177;28;96974;-80
2023/09/27 14:33:08;;;;;;;1.90;1.13;;;;;;;32.68;32.03;100575.16;10299900;28;96676;-80
2023/09/27 14:38:15;;;;;;;1.13;0.70;;;;;;;32.26;33.39;100567.75;10299274;28;97215;-80
2023/09/27 14:43:18;;;;;;;1.67;0.80;;;;;;;32.68;32.45;100558.81;10298886;28;97416;-80
2023/09/27 14:48:21;;;;;;;0.93;0.73;;;;;;;32.08;33.04;100559.19;10299252;28;96807;-80
2023/09/27 14:53:26;;;;;;;2.13;1.08;;;;;;;31.55;34.50;100552.16;10299118;28;97208;-80
2023/09/27 14:58:29;;;;;;;2.53;1.13;;;;;;;31.87;34.39;100556.41;10297893;28;96646;-80
2023/09/27 15:03:33;;;;;;;;;;;;;;;30.99;36.17;100550.84;10306345;28;96781;-80
2023/09/27 15:08:38;;;;;;;2.13;1.15;;;;;;;30.63;36.68;100546.25;10339758;28;96835;-80
2023/09/27 15:13:41;;;;;;;3.15;1.30;;;;;;;30.02;37.90;100552.56;10339107;28;96780;-80
2023/09/27 15:18:44;;;;;;;2.30;1.20;;;;;;;29.97;38.61;100555.78;10338147;28;97157;-80
2023/09/27 15:23:49;;;;;;;3.45;1.70;;;;;;;29.68;39.76;100544.75;10302999;28;97276;-79
2023/09/27 15:28:52;;;;;;;3.08;1.45;;;;;;;29.53;39.96;100540.22;10297474;28;96669;-80
2023/09/27 15:33:56;;;;;;;3.70;1.65;;;;;;;29.23;40.81;100527.38;10297984;28;96616;-79
2023/09/27 15:39:03;;;;;;;3.88;2.08;;;;;;;29.10;41.36;100539.59;10297574;28;96683;-80
2023/09/27 15:44:07;;;;;;;3.13;1.42;;;;;;;29.04;41.51;100543.03;10297224;28;96614;-80
2023/09/27 15:49:11;;;;;;;3.47;1.80;;;;;;;28.66;42.59;100538.28;10297068;28;96695;-80
2023/09/27 15:54:17;;;;;;;2.70;1.65;;;;;;;28.25;43.62;100531.09;10302449;28;98153;-80
2023/09/27 15:59:23;;;;;;;3.58;1.60;;;;;;;28.09;44.30;100536.47;10337801;28;96772;-80
2023/09/27 16:04:26;;;;;;;4.05;1.73;;;;;;;28.00;44.28;100542.88;10337796;28;96893;-80
2023/09/27 16:09:33;;;;;;;5.30;1.63;;;;;;;27.80;45.05;100539.63;10335771;28;96801;-80
2023/09/27 16:14:38;;;;;;;3.72;1.95;;;;;;;27.70;45.22;100536.19;10335987;28;96688;-79
2023/09/27 16:19:41;;;;;;;4.00;1.45;;;;;;;27.80;44.93;100531.50;10332019;28;96740;-79
2023/09/27 16:24:46;;;;;;;3.35;1.73;;;;;;;27.82;44.65;100531.34;10255699;28;97336;-80
2023/09/27 16:29:49;;;;;;;3.85;1.77;;;;;;;27.50;44.99;100532.00;10273185;28;97246;-80
2023/09/27 16:34:53;;;;;;;;;;;;;;;27.35;45.16;100538.19;10296100;28;96658;-80
2023/09/27 16:39:57;;;;;;;2.92;1.27;;;;;;;27.07;45.40;100548.31;10295136;28;96628;-80
2023/09/27 16:45:01;;;;;;;2.40;1.42;;;;;;;27.10;45.08;100550.69;10296872;28;97183;-80
2023/09/27 16:50:06;;;;;;;2.20;1.23;;;;;;;27.01;44.78;100547.06;10295459;28;96662;-79
2023/09/27 16:55:10;;;;;;;2.03;1.20;;;;;;;26.89;44.95;100555.56;10295808;28;96658;-80
2023/09/27 17:00:15;;;;;;;1.65;0.93;;;;;;;26.80;44.34;100543.84;10288582;22;96718;-80
2023/09/27 17:05:18;;;;;;;1.67;0.82;;;;;;;26.67;44.12;100556.94;10324227;28;96866;-79
2023/09/27 17:10:23;;;;;;;2.30;1.02;;;;;;;26.48;44.72;100551.69;10295270;28;96798;-80
2023/09/27 17:15:27;;;;;;;2.55;1.27;;;;;;;26.42;44.82;100549.59;10294509;28;96750;-79
2023/09/27 17:20:30;;;;;;;2.03;0.93;;;;;;;26.24;45.02;100554.13;10301246;28;97988;-79
2023/09/27 17:25:35;;;;;;;1.20;0.77;;;;;;;26.21;45.01;100564.38;10301408;28;96948;-79
2023/09/27 17:30:38;;;;;;;1.15;0.57;;;;;;;26.03;45.49;100574.28;10301718;28;97787;-79
2023/09/27 17:35:41;;;;;;;0.93;0.70;;;;;;;25.86;45.62;100579.50;10302940;28;97082;-79
2023/09/27 17:40:47;;;;;;;1.87;1.10;;;;;;;25.75;45.53;100590.47;10261089;28;97059;-80
2023/09/27 17:45:52;;;;;;;1.60;0.75;;;;;;;25.64;45.97;100585.22;10260527;28;97320;-79
2023/09/27 17:50:56;;;;;;;2.03;1.00;;;;;;;25.44;46.57;100594.38;10259276;28;96814;-79
2023/09/27 17:56:00;;;;;;;2.73;0.93;;;;;;;25.38;46.90;100599.53;10288118;28;97372;-79
2023/09/27 18:01:04;;;;;;;1.20;0.80;;;;;;;25.32;46.73;100595.56;10299629;28;96808;-79
2023/09/27 18:06:08;;;;;;;3.03;1.37;;;;;;;25.28;46.90;100595.97;10300734;28;96801;-78
2023/09/27 18:11:16;;;;;;;2.05;1.02;;;;;;;25.10;47.64;100605.81;10312569;28;97144;-79
2023/09/27 18:16:21;;;;;;;1.88;0.80;;;;;;;24.96;48.20;100595.47;10341235;28;97954;-79
2023/09/27 18:21:24;;;;;;;3.15;0.90;;;;;;;24.73;49.01;100592.22;10340734;28;96869;-79
2023/09/27 18:26:29;;;;;;;2.83;1.53;;;;;;;24.42;49.94;100596.03;10341680;28;96851;-79
2023/09/27 18:31:32;;;;;;;1.80;0.93;;;;;;;24.27;50.49;100608.16;10339540;28;96768;-79
2023/09/27 18:36:35;;;;;;;2.10;1.03;;;;;;;24.19;50.64;100613.38;10339998;28;96883;-79
2023/09/27 18:41:40;;;;;;;2.40;1.13;;;;;;;24.06;50.74;100610.09;10339266;28;97372;-79
2023/09/27 18:46:43;;;;;;;2.65;0.98;;;;;;;24.01;51.15;100623.97;10339423;28;96805;-79
2023/09/27 18:51:47;;;;;;;1.73;0.73;;;;;;;23.80;51.12;100616.94;10340253;28;96715;-78
2023/09/27 18:56:52;;;;;;;2.00;1.13;;;;;;;23.67;51.31;100634.13;10317446;28;97381;-78
2023/09/27 19:01:55;;;;;;;2.92;1.08;;;;;;;23.59;51.69;100630.44;10298619;28;96730;-78
2023/09/27 19:07:00;;;;;;;1.60;1.00;;;;;;;23.41;52.29;100631.97;10298422;28;97691;-79
2023/09/27 19:12:07;;;;;;;1.63;0.90;;;;;;;23.30;52.25;100640.97;10298362;28;96861;-79
2023/09/27 19:17:10;;;;;;;2.45;1.08;;;;;;;23.09;52.82;100634.78;10298950;28;97364;-79
2023/09/27 19:22:14;;;;;;;2.20;1.07;;;;;;;22.81;53.65;100643.44;10298219;28;96771;-78
2023/09/27 19:27:18;;;;;;;2.40;1.03;;;;;;;22.79;53.77;100641.84;10297449;28;96876;-78
2023/09/27 19:32:22;;;;;;;1.80;0.95;;;;;;;22.83;53.50;100654.91;10296635;28;96683;-79
2023/09/27 19:37:26;;;;;;;3.05;1.20;;;;;;;22.67;53.90;100659.81;10298037;28;96763;-79
2023/09/27 19:42:31;;;;;;;3.73;1.20;;;;;;;22.57;54.01;100657.00;10297177;28;96790;-79
2023/09/27 19:47:35;;;;;;;1.65;1.00;;;;;;;22.75;54.14;100661.88;10296754;28;97057;-78
2023/09/27 19:52:39;;;;;;;2.67;0.95;;;;;;;22.63;54.48;100660.19;10304686;28;96767;-78
2023/09/27 19:57:44;;;;;;;;;;;;;;;22.50;55.55;100661.22;10308792;28;96931;-79
2023/09/27 20:02:47;;;;;;;2.28;1.13;;;;;;;22.60;54.21;100664.84;10296908;28;96777;-78
2023/09/27 20:07:51;;;;;;;2.07;0.97;;;;;;;22.13;55.46;100659.81;10297378;28;97057;-78
2023/09/27 20:12:56;;;;;;;2.70;1.07;;;;;;;22.15;55.74;100667.72;10297022;28;96852;-78
2023/09/27 20:17:59;;;;;;;2.38;1.38;;;;;;;21.98;56.37;100669.09;10295928;28;97230;-78
2023/09/27 20:23:04;;;;;;;2.20;1.00;;;;;;;22.08;56.02;100667.38;10270984;28;96751;-78
2023/09/27 20:28:09;;;;;;;2.42;0.95;;;;;;;21.83;57.05;100678.31;10295318;28;97097;-78
2023/09/27 20:33:13;;;;;;;2.35;1.35;;;;;;;21.73;57.27;100684.53;10337298;28;96929;-78
2023/09/27 20:38:16;;;;;;;2.83;1.30;;;;;;;22.02;57.00;100686.63;10336885;28;96883;-78
2023/09/27 20:43:22;;;;;;;2.45;0.95;;;;;;;21.80;57.36;100688.41;10335920;28;97405;-78
2023/09/27 20:48:25;;;;;;;2.08;1.17;;;;;;;21.38;58.34;100692.63;10336699;28;97408;-78
2023/09/27 20:53:29;;;;;;;2.75;1.40;;;;;;;21.35;58.48;100692.84;10336476;28;96692;-78
2023/09/27 20:58:36;;;;;;;1.70;0.90;;;;;;;21.15;59.26;100691.69;10299156;28;98294;-79
2023/09/27 21:03:39;;;;;;;2.22;1.33;;;;;;;21.30;59.08;100695.91;10326988;28;97482;-78
2023/09/27 21:08:43;;;;;;;1.83;0.93;;;;;;;21.14;59.22;100698.00;10335751;28;96656;-78
2023/09/27 21:13:48;;;;;;;2.15;1.23;;;;;;;21.48;58.64;100705.16;10335364;28;96800;-78
2023/09/27 21:18:52;;;;;;;2.50;1.55;;;;;;;21.35;58.77;100715.13;10334879;28;96575;-78
2023/09/27 21:23:56;;;;;;;1.73;1.08;;;;;;;21.25;59.35;100710.59;10335626;28;96644;-78
2023/09/27 21:29:01;;;;;;;1.85;1.08;;;;;;;21.18;59.43;100723.59;10334598;28;97177;-78
2023/09/27 21:34:05;;;;;;;1.63;0.98;;;;;;;21.22;59.50;100717.06;10334625;28;96990;-78
2023/09/27 21:39:10;;;;;;;2.40;1.30;;;;;;;21.14;59.65;100726.56;10334769;28;96814;-79
2023/09/27 21:44:19;;;;;;;1.35;1.00;;;;;;;21.13;59.94;100731.09;10335297;28;97027;-78
2023/09/27 21:49:24;;;;;;;1.60;0.90;;;;;;;20.81;60.92;100732.63;10335608;28;96535;-79
2023/09/27 21:54:27;;;;;;;1.58;1.10;;;;;;;20.38;62.23;100734.94;10331058;28;96879;-79
2023/09/27 21:59:33;;;;;;;2.55;1.20;;;;;;;20.52;61.88;100741.94;10292879;28;96716;-79
2023/09/27 22:04:37;;;;;;;2.38;1.20;;;;;;;20.68;61.50;100744.34;10292619;28;96818;-79
2023/09/27 22:09:41;;;;;;;3.10;1.00;;;;;;;20.91;60.89;100740.84;10312826;28;96645;-79
2023/09/27 22:14:47;;;;;;;;;;;;;;;20.56;62.34;100742.56;10341972;28;97127;-78
2023/09/27 22:19:51;;;;;;;1.83;1.20;;;;;;;20.66;61.23;100735.59;10341397;28;96732;-78
2023/09/27 22:24:56;;;;;;;2.78;1.08;;;;;;;20.74;61.40;100738.56;10340381;28;97244;-78
2023/09/27 22:30:01;;;;;;;2.03;1.05;;;;;;;20.87;61.26;100736.69;10340781;28;97242;-78
2023/09/27 22:35:19;;;;;;;2.70;1.13;;;;;;;20.93;61.25;100739.75;10340883;28;97107;-78
2023/09/27 22:40:23;;;;;;;3.08;1.27;;;;;;;20.85;61.47;100743.97;10341248;28;97122;-78
2023/09/27 22:45:31;;;;;;;4.18;1.35;;;;;;;20.86;61.74;100740.34;10309635;28;97534;-79
2023/09/27 22:50:44;;;;;;;2.88;1.38;;;;;;;20.80;62.02;100738.09;10298926;28;97104;-78
2023/09/27 22:55:50;;;;;;;2.97;1.35;;;;;;;20.32;63.22;100735.34;10297508;28;96885;-78
2023/09/27 23:00:58;;;;;;;2.28;1.20;;;;;;;20.30;63.07;100739.13;10298967;28;96676;-79
2023/09/27 23:06:03;;;;;;;2.53;1.17;;;;;;;20.13;63.79;100726.91;10298385;28;96651;-79
2023/09/27 23:11:09;;;;;;;3.70;1.52;;;;;;;20.19;63.39;100717.63;10298164;28;96750;-79
2023/09/27 23:16:44;;;;;;;;;;;;;;;19.79;65.65;100716.91;10299334;28;96641;-79
2023/09/27 23:21:48;;;;;;;2.25;1.17;;;;;;;20.05;64.07;100715.06;10286517;28;96723;-78
2023/09/27 23:26:52;;;;;;;3.97;1.57;;;;;;;20.19;63.78;100710.47;10257434;28;97251;-78